Pagina principale
METAR-TAF:

METAR-TAF

Aeroporti :

Aeroporto di Gibilterra

Gibilterra, Gibilterra

latitudine: 36-09N, longitudine: 005-21W, altezza: 5 m

Osservazione

Il bollettino è stato emesso 18 minuti fa, alle 13:50 UTC
Vento 13 kt da ovest
Temperature 18°C
Umidità 64%
Pressione 1025 hPa
Visibilità 10 km o più
Poco nuvoloso ad un'altezza di 3000 ft
Nubi sparse ad un'altezza di 30000 ft

METAR: LXGB 281350Z 27013KT 9999 FEW030 SCT300 18/11 Q1025 NOSIG RMK BLU BLU

Ora: 15:08 (14:08 UTC)

Previsione

Il bollettino è stato emesso 3 ore e 25 minuti fa, alle 10:43 UTC
Previsione valida dal 28 alle 12 UTC al 28 alle 21 UTC
Vento 8 kt da ovest
Visibilità 10 km o più
Poco nuvoloso ad un'altezza di 2000 ft

TAF: LXGB 281043Z 2812/2821 26008KT 9999 FEW020

Osservazioni e previsioni meteorologiche di più di 4000 aeroporti (messaggi METAR e TAF).

Le stazioni disponibili sono rappresentate dai dischi gialli e rossi sulla carta.

Puntare il mouse per vedere il nome della stazione.

Clicca sopra per visualizzare le osservazioni e previsioni meteorologiche.

Per cambiare la mappa : fare clic sui pulsanti verdi con una croce nera per ingrandire, il pulsante verde con un trattino per diminuire, o sulla freccia verde per le mappe adiacenti.


METAR-TAF: